sensor_id;sensor_type;location;lat;lon;timestamp;P1;durP1;ratioP1;P2;durP2;ratioP2
5285;SDS011;2665;53.112;7.358;2023-05-10T00:01:37;6.30;;;4.40;;
5285;SDS011;2665;53.112;7.358;2023-05-10T00:04:03;6.47;;;4.17;;
5285;SDS011;2665;53.112;7.358;2023-05-10T00:06:28;5.73;;;4.03;;
5285;SDS011;2665;53.112;7.358;2023-05-10T00:08:55;6.03;;;4.20;;
5285;SDS011;2665;53.112;7.358;2023-05-10T00:11:20;5.57;;;4.10;;
5285;SDS011;2665;53.112;7.358;2023-05-10T00:13:46;6.03;;;4.43;;
5285;SDS011;2665;53.112;7.358;2023-05-10T00:16:12;5.03;;;3.80;;
5285;SDS011;2665;53.112;7.358;2023-05-10T00:18:38;7.07;;;4.57;;
5285;SDS011;2665;53.112;7.358;2023-05-10T00:21:04;4.43;;;3.47;;
5285;SDS011;2665;53.112;7.358;2023-05-10T00:23:29;6.83;;;5.13;;
5285;SDS011;2665;53.112;7.358;2023-05-10T00:25:55;5.43;;;4.60;;
5285;SDS011;2665;53.112;7.358;2023-05-10T00:28:21;7.17;;;3.97;;
5285;SDS011;2665;53.112;7.358;2023-05-10T00:30:47;5.70;;;4.27;;
5285;SDS011;2665;53.112;7.358;2023-05-10T00:33:12;8.03;;;5.47;;
5285;SDS011;2665;53.112;7.358;2023-05-10T00:35:38;6.50;;;4.43;;
5285;SDS011;2665;53.112;7.358;2023-05-10T00:38:04;6.03;;;4.60;;
5285;SDS011;2665;53.112;7.358;2023-05-10T00:40:29;6.33;;;4.97;;
5285;SDS011;2665;53.112;7.358;2023-05-10T00:42:55;7.53;;;5.87;;
5285;SDS011;2665;53.112;7.358;2023-05-10T00:45:22;10.13;;;5.20;;
5285;SDS011;2665;53.112;7.358;2023-05-10T00:47:48;10.50;;;5.93;;
5285;SDS011;2665;53.112;7.358;2023-05-10T00:50:14;9.53;;;5.73;;
5285;SDS011;2665;53.112;7.358;2023-05-10T00:52:40;8.33;;;5.80;;
5285;SDS011;2665;53.112;7.358;2023-05-10T00:55:07;10.97;;;5.93;;
5285;SDS011;2665;53.112;7.358;2023-05-10T00:57:36;8.90;;;6.20;;
5285;SDS011;2665;53.112;7.358;2023-05-10T01:00:02;7.37;;;5.80;;
5285;SDS011;2665;53.112;7.358;2023-05-10T01:02:28;7.17;;;5.27;;
5285;SDS011;2665;53.112;7.358;2023-05-10T01:04:54;9.23;;;6.37;;
5285;SDS011;2665;53.112;7.358;2023-05-10T01:07:20;9.53;;;6.83;;
5285;SDS011;2665;53.112;7.358;2023-05-10T01:09:45;10.93;;;7.43;;
5285;SDS011;2665;53.112;7.358;2023-05-10T01:12:11;9.37;;;6.37;;
5285;SDS011;2665;53.112;7.358;2023-05-10T01:14:37;7.00;;;5.63;;
5285;SDS011;2665;53.112;7.358;2023-05-10T01:17:03;10.23;;;7.27;;
5285;SDS011;2665;53.112;7.358;2023-05-10T01:19:31;10.77;;;7.27;;
5285;SDS011;2665;53.112;7.358;2023-05-10T01:37:15;11.00;;;7.00;;
5285;SDS011;2665;53.112;7.358;2023-05-10T01:39:17;10.47;;;7.30;;
5285;SDS011;2665;53.112;7.358;2023-05-10T01:42:14;10.50;;;6.33;;
5285;SDS011;2665;53.112;7.358;2023-05-10T01:47:44;6.90;;;4.80;;
5285;SDS011;2665;53.112;7.358;2023-05-10T01:50:16;6.33;;;4.33;;
5285;SDS011;2665;53.112;7.358;2023-05-10T01:52:47;5.87;;;4.17;;
5285;SDS011;2665;53.112;7.358;2023-05-10T01:55:16;8.33;;;4.40;;
5285;SDS011;2665;53.112;7.358;2023-05-10T01:57:45;5.20;;;3.93;;
5285;SDS011;2665;53.112;7.358;2023-05-10T02:00:13;5.30;;;3.67;;
5285;SDS011;2665;53.112;7.358;2023-05-10T02:02:40;9.73;;;4.20;;
5285;SDS011;2665;53.112;7.358;2023-05-10T02:05:10;5.47;;;4.40;;
5285;SDS011;2665;53.112;7.358;2023-05-10T02:07:38;5.70;;;4.07;;
5285;SDS011;2665;53.112;7.358;2023-05-10T02:10:05;6.90;;;4.30;;
5285;SDS011;2665;53.112;7.358;2023-05-10T02:12:35;5.67;;;3.70;;
5285;SDS011;2665;53.112;7.358;2023-05-10T02:15:05;5.80;;;3.97;;
5285;SDS011;2665;53.112;7.358;2023-05-10T02:17:32;4.80;;;3.77;;
5285;SDS011;2665;53.112;7.358;2023-05-10T02:20:00;6.70;;;4.53;;
5285;SDS011;2665;53.112;7.358;2023-05-10T02:22:27;6.20;;;3.90;;
5285;SDS011;2665;53.112;7.358;2023-05-10T02:24:57;6.07;;;4.87;;
5285;SDS011;2665;53.112;7.358;2023-05-10T02:27:24;8.00;;;5.23;;
5285;SDS011;2665;53.112;7.358;2023-05-10T02:29:52;8.07;;;4.67;;
5285;SDS011;2665;53.112;7.358;2023-05-10T02:32:19;5.70;;;4.50;;
5285;SDS011;2665;53.112;7.358;2023-05-10T02:34:47;5.93;;;4.60;;
5285;SDS011;2665;53.112;7.358;2023-05-10T02:37:17;8.00;;;4.03;;
5285;SDS011;2665;53.112;7.358;2023-05-10T02:39:49;6.90;;;4.40;;
5285;SDS011;2665;53.112;7.358;2023-05-10T02:42:16;6.83;;;4.60;;
5285;SDS011;2665;53.112;7.358;2023-05-10T02:44:45;5.83;;;4.80;;
5285;SDS011;2665;53.112;7.358;2023-05-10T02:47:13;5.83;;;4.10;;
5285;SDS011;2665;53.112;7.358;2023-05-10T02:49:39;8.73;;;4.83;;
5285;SDS011;2665;53.112;7.358;2023-05-10T02:52:05;6.07;;;4.47;;
5285;SDS011;2665;53.112;7.358;2023-05-10T02:54:34;5.47;;;3.80;;
5285;SDS011;2665;53.112;7.358;2023-05-10T02:57:08;7.10;;;4.53;;
5285;SDS011;2665;53.112;7.358;2023-05-10T02:59:39;8.03;;;5.10;;
5285;SDS011;2665;53.112;7.358;2023-05-10T03:02:07;6.60;;;5.13;;
5285;SDS011;2665;53.112;7.358;2023-05-10T03:04:34;6.43;;;4.60;;
5285;SDS011;2665;53.112;7.358;2023-05-10T03:07:00;6.53;;;4.40;;
5285;SDS011;2665;53.112;7.358;2023-05-10T03:09:26;7.90;;;6.03;;
5285;SDS011;2665;53.112;7.358;2023-05-10T03:14:49;8.03;;;5.53;;
5285;SDS011;2665;53.112;7.358;2023-05-10T03:20:09;7.60;;;5.40;;
5285;SDS011;2665;53.112;7.358;2023-05-10T03:22:38;10.00;;;5.97;;
5285;SDS011;2665;53.112;7.358;2023-05-10T03:25:10;6.23;;;4.37;;
5285;SDS011;2665;53.112;7.358;2023-05-10T03:27:38;8.17;;;5.37;;
5285;SDS011;2665;53.112;7.358;2023-05-10T03:30:08;6.17;;;4.90;;
5285;SDS011;2665;53.112;7.358;2023-05-10T03:32:35;8.47;;;5.87;;
5285;SDS011;2665;53.112;7.358;2023-05-10T03:35:11;7.17;;;4.47;;
5285;SDS011;2665;53.112;7.358;2023-05-10T03:37:38;8.33;;;5.30;;
5285;SDS011;2665;53.112;7.358;2023-05-10T03:40:04;9.27;;;5.73;;
5285;SDS011;2665;53.112;7.358;2023-05-10T03:42:31;6.80;;;4.73;;
5285;SDS011;2665;53.112;7.358;2023-05-10T03:44:57;7.70;;;5.00;;
5285;SDS011;2665;53.112;7.358;2023-05-10T03:47:22;10.40;;;6.37;;
5285;SDS011;2665;53.112;7.358;2023-05-10T03:49:48;7.90;;;5.77;;
5285;SDS011;2665;53.112;7.358;2023-05-10T03:52:14;8.73;;;5.67;;
5285;SDS011;2665;53.112;7.358;2023-05-10T03:54:39;7.17;;;4.90;;
5285;SDS011;2665;53.112;7.358;2023-05-10T03:57:05;8.30;;;5.47;;
5285;SDS011;2665;53.112;7.358;2023-05-10T03:59:30;7.83;;;5.13;;
5285;SDS011;2665;53.112;7.358;2023-05-10T04:01:56;7.57;;;4.63;;
5285;SDS011;2665;53.112;7.358;2023-05-10T04:04:21;12.83;;;5.80;;
5285;SDS011;2665;53.112;7.358;2023-05-10T04:06:48;7.03;;;4.00;;
5285;SDS011;2665;53.112;7.358;2023-05-10T04:09:13;6.13;;;4.43;;
5285;SDS011;2665;53.112;7.358;2023-05-10T04:11:39;5.37;;;3.90;;
5285;SDS011;2665;53.112;7.358;2023-05-10T04:14:05;7.37;;;4.30;;
5285;SDS011;2665;53.112;7.358;2023-05-10T04:16:30;8.87;;;5.20;;
5285;SDS011;2665;53.112;7.358;2023-05-10T04:18:56;7.60;;;4.30;;
5285;SDS011;2665;53.112;7.358;2023-05-10T04:21:22;8.03;;;4.47;;
5285;SDS011;2665;53.112;7.358;2023-05-10T04:23:48;8.77;;;5.60;;
5285;SDS011;2665;53.112;7.358;2023-05-10T04:26:13;7.17;;;5.20;;
5285;SDS011;2665;53.112;7.358;2023-05-10T04:28:39;8.00;;;5.10;;
5285;SDS011;2665;53.112;7.358;2023-05-10T04:31:05;11.13;;;5.17;;
5285;SDS011;2665;53.112;7.358;2023-05-10T04:33:32;9.73;;;5.40;;
5285;SDS011;2665;53.112;7.358;2023-05-10T04:35:58;7.37;;;5.13;;
5285;SDS011;2665;53.112;7.358;2023-05-10T04:38:24;8.53;;;5.60;;
5285;SDS011;2665;53.112;7.358;2023-05-10T04:40:50;6.90;;;5.10;;
5285;SDS011;2665;53.112;7.358;2023-05-10T04:43:16;8.87;;;5.90;;
5285;SDS011;2665;53.112;7.358;2023-05-10T04:45:42;11.13;;;6.20;;
5285;SDS011;2665;53.112;7.358;2023-05-10T04:48:07;6.90;;;5.00;;
5285;SDS011;2665;53.112;7.358;2023-05-10T04:50:33;7.50;;;5.30;;
5285;SDS011;2665;53.112;7.358;2023-05-10T04:52:58;7.87;;;5.33;;
5285;SDS011;2665;53.112;7.358;2023-05-10T04:55:24;9.23;;;5.67;;
5285;SDS011;2665;53.112;7.358;2023-05-10T04:57:50;6.83;;;4.20;;
5285;SDS011;2665;53.112;7.358;2023-05-10T05:00:15;7.63;;;5.90;;
5285;SDS011;2665;53.112;7.358;2023-05-10T05:02:42;8.20;;;5.17;;
5285;SDS011;2665;53.112;7.358;2023-05-10T05:05:10;9.90;;;5.40;;
5285;SDS011;2665;53.112;7.358;2023-05-10T05:07:36;10.23;;;5.57;;
5285;SDS011;2665;53.112;7.358;2023-05-10T05:10:02;8.20;;;5.40;;
5285;SDS011;2665;53.112;7.358;2023-05-10T05:12:28;9.37;;;6.20;;
5285;SDS011;2665;53.112;7.358;2023-05-10T05:14:53;9.60;;;4.90;;
5285;SDS011;2665;53.112;7.358;2023-05-10T05:17:19;9.77;;;4.60;;
5285;SDS011;2665;53.112;7.358;2023-05-10T05:19:44;8.60;;;5.80;;
5285;SDS011;2665;53.112;7.358;2023-05-10T05:22:10;12.67;;;6.30;;
5285;SDS011;2665;53.112;7.358;2023-05-10T05:24:36;7.30;;;5.57;;
5285;SDS011;2665;53.112;7.358;2023-05-10T05:27:04;7.53;;;5.40;;
5285;SDS011;2665;53.112;7.358;2023-05-10T05:29:30;9.23;;;5.47;;
5285;SDS011;2665;53.112;7.358;2023-05-10T05:31:56;9.17;;;6.00;;
5285;SDS011;2665;53.112;7.358;2023-05-10T05:34:22;8.90;;;5.40;;
5285;SDS011;2665;53.112;7.358;2023-05-10T05:36:47;8.03;;;5.80;;
5285;SDS011;2665;53.112;7.358;2023-05-10T05:39:13;8.30;;;5.13;;
5285;SDS011;2665;53.112;7.358;2023-05-10T05:41:39;8.57;;;5.00;;
5285;SDS011;2665;53.112;7.358;2023-05-10T05:44:04;8.27;;;6.03;;
5285;SDS011;2665;53.112;7.358;2023-05-10T05:46:30;7.87;;;6.00;;
5285;SDS011;2665;53.112;7.358;2023-05-10T05:48:56;7.10;;;5.10;;
5285;SDS011;2665;53.112;7.358;2023-05-10T05:51:21;8.60;;;4.77;;
5285;SDS011;2665;53.112;7.358;2023-05-10T05:53:47;8.13;;;5.37;;
5285;SDS011;2665;53.112;7.358;2023-05-10T05:56:12;8.80;;;4.63;;
5285;SDS011;2665;53.112;7.358;2023-05-10T05:58:38;7.07;;;4.90;;
5285;SDS011;2665;53.112;7.358;2023-05-10T06:01:04;8.87;;;5.80;;
5285;SDS011;2665;53.112;7.358;2023-05-10T06:03:30;8.83;;;4.90;;
5285;SDS011;2665;53.112;7.358;2023-05-10T06:05:55;7.10;;;5.30;;
5285;SDS011;2665;53.112;7.358;2023-05-10T06:08:21;9.63;;;4.63;;
5285;SDS011;2665;53.112;7.358;2023-05-10T06:10:47;7.70;;;4.53;;
5285;SDS011;2665;53.112;7.358;2023-05-10T06:13:13;7.13;;;3.90;;
5285;SDS011;2665;53.112;7.358;2023-05-10T06:15:38;6.40;;;4.57;;
5285;SDS011;2665;53.112;7.358;2023-05-10T06:18:04;4.83;;;3.60;;
5285;SDS011;2665;53.112;7.358;2023-05-10T06:20:30;7.30;;;3.93;;
5285;SDS011;2665;53.112;7.358;2023-05-10T06:22:56;4.70;;;3.63;;
5285;SDS011;2665;53.112;7.358;2023-05-10T06:25:23;4.90;;;4.00;;
5285;SDS011;2665;53.112;7.358;2023-05-10T06:27:48;6.43;;;3.50;;
5285;SDS011;2665;53.112;7.358;2023-05-10T06:30:14;7.13;;;3.97;;
5285;SDS011;2665;53.112;7.358;2023-05-10T06:32:40;5.73;;;3.37;;
5285;SDS011;2665;53.112;7.358;2023-05-10T06:35:06;8.93;;;3.87;;
5285;SDS011;2665;53.112;7.358;2023-05-10T06:37:32;4.70;;;3.67;;
5285;SDS011;2665;53.112;7.358;2023-05-10T06:39:59;4.30;;;3.60;;
5285;SDS011;2665;53.112;7.358;2023-05-10T06:42:25;5.10;;;3.13;;
5285;SDS011;2665;53.112;7.358;2023-05-10T06:44:52;6.40;;;3.60;;
5285;SDS011;2665;53.112;7.358;2023-05-10T06:47:17;5.17;;;3.30;;
5285;SDS011;2665;53.112;7.358;2023-05-10T06:49:43;5.60;;;3.40;;
5285;SDS011;2665;53.112;7.358;2023-05-10T06:52:09;4.57;;;3.20;;
5285;SDS011;2665;53.112;7.358;2023-05-10T06:54:34;4.30;;;2.67;;
5285;SDS011;2665;53.112;7.358;2023-05-10T06:57:00;4.40;;;3.20;;
5285;SDS011;2665;53.112;7.358;2023-05-10T06:59:28;4.00;;;2.63;;
5285;SDS011;2665;53.112;7.358;2023-05-10T07:01:53;7.23;;;2.80;;
5285;SDS011;2665;53.112;7.358;2023-05-10T07:04:19;5.10;;;3.40;;
5285;SDS011;2665;53.112;7.358;2023-05-10T07:06:45;3.53;;;2.80;;
5285;SDS011;2665;53.112;7.358;2023-05-10T07:09:11;3.67;;;2.70;;
5285;SDS011;2665;53.112;7.358;2023-05-10T07:11:38;3.30;;;1.93;;
5285;SDS011;2665;53.112;7.358;2023-05-10T07:14:03;2.90;;;2.00;;
5285;SDS011;2665;53.112;7.358;2023-05-10T07:16:30;3.40;;;2.00;;
5285;SDS011;2665;53.112;7.358;2023-05-10T07:18:55;2.50;;;1.70;;
5285;SDS011;2665;53.112;7.358;2023-05-10T07:21:21;3.23;;;1.70;;
5285;SDS011;2665;53.112;7.358;2023-05-10T07:23:49;2.57;;;1.50;;
5285;SDS011;2665;53.112;7.358;2023-05-10T07:26:15;2.60;;;1.77;;
5285;SDS011;2665;53.112;7.358;2023-05-10T07:28:41;2.10;;;1.17;;
5285;SDS011;2665;53.112;7.358;2023-05-10T07:31:06;2.07;;;1.20;;
5285;SDS011;2665;53.112;7.358;2023-05-10T07:33:32;2.03;;;0.93;;
5285;SDS011;2665;53.112;7.358;2023-05-10T07:35:58;2.07;;;1.37;;
5285;SDS011;2665;53.112;7.358;2023-05-10T07:38:23;2.40;;;1.17;;
5285;SDS011;2665;53.112;7.358;2023-05-10T07:40:49;1.90;;;1.00;;
5285;SDS011;2665;53.112;7.358;2023-05-10T07:43:14;2.23;;;1.10;;
5285;SDS011;2665;53.112;7.358;2023-05-10T07:45:40;2.10;;;1.00;;
5285;SDS011;2665;53.112;7.358;2023-05-10T07:48:06;2.00;;;1.10;;
5285;SDS011;2665;53.112;7.358;2023-05-10T07:50:31;1.60;;;0.70;;
5285;SDS011;2665;53.112;7.358;2023-05-10T07:52:57;1.70;;;0.70;;
5285;SDS011;2665;53.112;7.358;2023-05-10T07:55:22;1.60;;;0.70;;
5285;SDS011;2665;53.112;7.358;2023-05-10T07:57:48;2.77;;;0.67;;
5285;SDS011;2665;53.112;7.358;2023-05-10T08:00:16;1.50;;;0.60;;
5285;SDS011;2665;53.112;7.358;2023-05-10T08:02:43;1.60;;;0.60;;
5285;SDS011;2665;53.112;7.358;2023-05-10T08:05:09;1.50;;;0.50;;
5285;SDS011;2665;53.112;7.358;2023-05-10T08:07:35;1.50;;;0.50;;
5285;SDS011;2665;53.112;7.358;2023-05-10T08:10:01;1.50;;;0.50;;
5285;SDS011;2665;53.112;7.358;2023-05-10T08:12:28;1.60;;;0.50;;
5285;SDS011;2665;53.112;7.358;2023-05-10T08:14:53;1.60;;;0.60;;
5285;SDS011;2665;53.112;7.358;2023-05-10T08:17:19;1.60;;;0.70;;
5285;SDS011;2665;53.112;7.358;2023-05-10T08:19:44;1.50;;;0.60;;
5285;SDS011;2665;53.112;7.358;2023-05-10T08:22:10;1.63;;;0.60;;
5285;SDS011;2665;53.112;7.358;2023-05-10T08:24:36;1.50;;;0.50;;
5285;SDS011;2665;53.112;7.358;2023-05-10T08:27:06;2.03;;;0.67;;
5285;SDS011;2665;53.112;7.358;2023-05-10T08:29:32;1.80;;;0.70;;
5285;SDS011;2665;53.112;7.358;2023-05-10T08:31:57;1.63;;;0.63;;
5285;SDS011;2665;53.112;7.358;2023-05-10T08:34:23;5.50;;;0.70;;
5285;SDS011;2665;53.112;7.358;2023-05-10T08:36:49;1.77;;;0.63;;
5285;SDS011;2665;53.112;7.358;2023-05-10T08:39:15;1.60;;;0.63;;
5285;SDS011;2665;53.112;7.358;2023-05-10T08:41:41;1.97;;;0.70;;
5285;SDS011;2665;53.112;7.358;2023-05-10T08:44:09;1.70;;;0.70;;
5285;SDS011;2665;53.112;7.358;2023-05-10T08:46:35;2.27;;;0.60;;
5285;SDS011;2665;53.112;7.358;2023-05-10T08:49:06;2.17;;;0.93;;
5285;SDS011;2665;53.112;7.358;2023-05-10T08:51:36;2.00;;;0.70;;
5285;SDS011;2665;53.112;7.358;2023-05-10T08:54:02;1.67;;;0.73;;
5285;SDS011;2665;53.112;7.358;2023-05-10T08:56:29;1.63;;;0.63;;
5285;SDS011;2665;53.112;7.358;2023-05-10T08:58:55;1.60;;;0.53;;
5285;SDS011;2665;53.112;7.358;2023-05-10T09:01:22;1.90;;;0.73;;
5285;SDS011;2665;53.112;7.358;2023-05-10T09:03:47;1.70;;;0.60;;
5285;SDS011;2665;53.112;7.358;2023-05-10T09:06:14;1.53;;;0.60;;
5285;SDS011;2665;53.112;7.358;2023-05-10T09:08:41;1.53;;;0.60;;
5285;SDS011;2665;53.112;7.358;2023-05-10T09:11:08;2.27;;;1.00;;
5285;SDS011;2665;53.112;7.358;2023-05-10T09:13:35;1.80;;;0.70;;
5285;SDS011;2665;53.112;7.358;2023-05-10T09:16:01;2.37;;;0.97;;
5285;SDS011;2665;53.112;7.358;2023-05-10T09:18:28;1.90;;;0.90;;
5285;SDS011;2665;53.112;7.358;2023-05-10T09:20:55;2.10;;;1.20;;
5285;SDS011;2665;53.112;7.358;2023-05-10T09:23:21;2.33;;;1.17;;
5285;SDS011;2665;53.112;7.358;2023-05-10T09:25:46;2.40;;;1.40;;
5285;SDS011;2665;53.112;7.358;2023-05-10T09:28:12;2.80;;;1.60;;
5285;SDS011;2665;53.112;7.358;2023-05-10T09:30:38;2.70;;;1.70;;
5285;SDS011;2665;53.112;7.358;2023-05-10T09:33:04;3.37;;;2.40;;
5285;SDS011;2665;53.112;7.358;2023-05-10T09:35:30;2.90;;;1.77;;
5285;SDS011;2665;53.112;7.358;2023-05-10T09:38:00;3.67;;;2.50;;
5285;SDS011;2665;53.112;7.358;2023-05-10T09:40:27;5.17;;;3.13;;
5285;SDS011;2665;53.112;7.358;2023-05-10T09:43:02;3.33;;;2.57;;
5285;SDS011;2665;53.112;7.358;2023-05-10T09:45:34;3.10;;;1.73;;
5285;SDS011;2665;53.112;7.358;2023-05-10T09:48:01;3.73;;;2.57;;
5285;SDS011;2665;53.112;7.358;2023-05-10T09:50:28;3.50;;;2.33;;
5285;SDS011;2665;53.112;7.358;2023-05-10T09:58:01;2.57;;;1.77;;
5285;SDS011;2665;53.112;7.358;2023-05-10T10:00:27;2.90;;;2.00;;
5285;SDS011;2665;53.112;7.358;2023-05-10T10:02:54;2.70;;;2.00;;
5285;SDS011;2665;53.112;7.358;2023-05-10T10:05:27;3.17;;;2.10;;
5285;SDS011;2665;53.112;7.358;2023-05-10T10:07:57;2.33;;;1.60;;
5285;SDS011;2665;53.112;7.358;2023-05-10T10:10:27;2.73;;;1.80;;
5285;SDS011;2665;53.112;7.358;2023-05-10T10:12:53;2.87;;;1.80;;
5285;SDS011;2665;53.112;7.358;2023-05-10T10:15:20;3.50;;;1.97;;
5285;SDS011;2665;53.112;7.358;2023-05-10T10:17:46;2.60;;;1.80;;
5285;SDS011;2665;53.112;7.358;2023-05-10T10:20:13;2.77;;;1.90;;
5285;SDS011;2665;53.112;7.358;2023-05-10T10:22:40;2.90;;;2.27;;
5285;SDS011;2665;53.112;7.358;2023-05-10T10:25:06;2.57;;;1.90;;
5285;SDS011;2665;53.112;7.358;2023-05-10T10:27:42;2.80;;;2.17;;
5285;SDS011;2665;53.112;7.358;2023-05-10T10:35:29;2.67;;;1.67;;
5285;SDS011;2665;53.112;7.358;2023-05-10T10:37:55;2.60;;;1.80;;
5285;SDS011;2665;53.112;7.358;2023-05-10T10:40:22;2.93;;;1.60;;
5285;SDS011;2665;53.112;7.358;2023-05-10T10:42:50;2.90;;;1.80;;
5285;SDS011;2665;53.112;7.358;2023-05-10T10:45:16;3.10;;;2.10;;
5285;SDS011;2665;53.112;7.358;2023-05-10T10:47:41;2.70;;;1.80;;
5285;SDS011;2665;53.112;7.358;2023-05-10T10:50:08;3.03;;;2.13;;
5285;SDS011;2665;53.112;7.358;2023-05-10T10:52:36;2.30;;;1.60;;
5285;SDS011;2665;53.112;7.358;2023-05-10T11:00:19;3.30;;;2.13;;
5285;SDS011;2665;53.112;7.358;2023-05-10T11:02:47;2.30;;;1.47;;
5285;SDS011;2665;53.112;7.358;2023-05-10T11:07:59;3.43;;;1.80;;
5285;SDS011;2665;53.112;7.358;2023-05-10T11:10:25;2.97;;;2.30;;
5285;SDS011;2665;53.112;7.358;2023-05-10T11:15:39;2.23;;;1.70;;
5285;SDS011;2665;53.112;7.358;2023-05-10T11:18:23;2.00;;;1.23;;
5285;SDS011;2665;53.112;7.358;2023-05-10T11:20:57;2.40;;;1.83;;
5285;SDS011;2665;53.112;7.358;2023-05-10T11:23:29;2.40;;;1.40;;
5285;SDS011;2665;53.112;7.358;2023-05-10T11:25:56;2.13;;;1.23;;
5285;SDS011;2665;53.112;7.358;2023-05-10T11:28:22;2.30;;;1.40;;
5285;SDS011;2665;53.112;7.358;2023-05-10T11:30:48;2.80;;;1.57;;
5285;SDS011;2665;53.112;7.358;2023-05-10T11:33:17;3.03;;;1.50;;
5285;SDS011;2665;53.112;7.358;2023-05-10T11:35:44;2.23;;;1.37;;
5285;SDS011;2665;53.112;7.358;2023-05-10T11:38:10;2.60;;;1.40;;
5285;SDS011;2665;53.112;7.358;2023-05-10T11:40:37;2.93;;;1.47;;
5285;SDS011;2665;53.112;7.358;2023-05-10T11:43:04;3.10;;;1.50;;
5285;SDS011;2665;53.112;7.358;2023-05-10T11:45:34;2.00;;;1.30;;
5285;SDS011;2665;53.112;7.358;2023-05-10T11:48:00;2.40;;;1.60;;
5285;SDS011;2665;53.112;7.358;2023-05-10T11:50:26;2.60;;;1.60;;
5285;SDS011;2665;53.112;7.358;2023-05-10T11:52:53;3.17;;;1.60;;
5285;SDS011;2665;53.112;7.358;2023-05-10T11:55:19;2.20;;;1.43;;
5285;SDS011;2665;53.112;7.358;2023-05-10T11:57:45;2.40;;;1.50;;
5285;SDS011;2665;53.112;7.358;2023-05-10T12:00:12;3.97;;;1.73;;
5285;SDS011;2665;53.112;7.358;2023-05-10T12:02:38;3.70;;;2.00;;
5285;SDS011;2665;53.112;7.358;2023-05-10T12:05:04;2.77;;;1.90;;
5285;SDS011;2665;53.112;7.358;2023-05-10T12:07:31;2.80;;;2.23;;
5285;SDS011;2665;53.112;7.358;2023-05-10T12:10:12;3.10;;;1.87;;
5285;SDS011;2665;53.112;7.358;2023-05-10T12:15:16;3.00;;;2.20;;
5285;SDS011;2665;53.112;7.358;2023-05-10T12:17:44;3.00;;;2.03;;
5285;SDS011;2665;53.112;7.358;2023-05-10T12:22:40;3.53;;;1.73;;
5285;SDS011;2665;53.112;7.358;2023-05-10T12:25:09;2.57;;;1.50;;
5285;SDS011;2665;53.112;7.358;2023-05-10T12:27:35;3.07;;;1.50;;
5285;SDS011;2665;53.112;7.358;2023-05-10T12:30:01;2.90;;;1.90;;
5285;SDS011;2665;53.112;7.358;2023-05-10T12:32:37;5.50;;;1.37;;
5285;SDS011;2665;53.112;7.358;2023-05-10T12:35:06;2.70;;;1.30;;
5285;SDS011;2665;53.112;7.358;2023-05-10T12:37:33;3.60;;;1.30;;
5285;SDS011;2665;53.112;7.358;2023-05-10T12:40:07;2.50;;;1.50;;
5285;SDS011;2665;53.112;7.358;2023-05-10T12:42:35;2.50;;;1.40;;
5285;SDS011;2665;53.112;7.358;2023-05-10T12:45:02;2.20;;;1.20;;
5285;SDS011;2665;53.112;7.358;2023-05-10T12:47:28;2.30;;;1.00;;
5285;SDS011;2665;53.112;7.358;2023-05-10T12:49:54;2.40;;;1.33;;
5285;SDS011;2665;53.112;7.358;2023-05-10T12:52:20;2.73;;;1.40;;
5285;SDS011;2665;53.112;7.358;2023-05-10T12:54:46;2.30;;;1.40;;
5285;SDS011;2665;53.112;7.358;2023-05-10T12:57:12;2.43;;;1.33;;
5285;SDS011;2665;53.112;7.358;2023-05-10T12:59:38;3.57;;;1.57;;
5285;SDS011;2665;53.112;7.358;2023-05-10T13:02:04;2.50;;;1.70;;
5285;SDS011;2665;53.112;7.358;2023-05-10T13:04:30;3.10;;;1.53;;
5285;SDS011;2665;53.112;7.358;2023-05-10T13:06:56;3.47;;;1.80;;
5285;SDS011;2665;53.112;7.358;2023-05-10T13:09:23;3.73;;;2.00;;
5285;SDS011;2665;53.112;7.358;2023-05-10T13:11:50;2.33;;;1.53;;
5285;SDS011;2665;53.112;7.358;2023-05-10T13:14:18;2.50;;;1.63;;
5285;SDS011;2665;53.112;7.358;2023-05-10T13:16:45;2.83;;;1.77;;
5285;SDS011;2665;53.112;7.358;2023-05-10T13:19:12;2.80;;;1.80;;
5285;SDS011;2665;53.112;7.358;2023-05-10T13:21:38;3.03;;;1.67;;
5285;SDS011;2665;53.112;7.358;2023-05-10T13:24:06;2.20;;;1.20;;
5285;SDS011;2665;53.112;7.358;2023-05-10T13:26:32;4.00;;;1.80;;
5285;SDS011;2665;53.112;7.358;2023-05-10T13:28:58;2.57;;;1.50;;
5285;SDS011;2665;53.112;7.358;2023-05-10T13:31:24;3.27;;;1.90;;
5285;SDS011;2665;53.112;7.358;2023-05-10T13:33:50;3.50;;;2.27;;
5285;SDS011;2665;53.112;7.358;2023-05-10T13:36:16;2.97;;;1.70;;
5285;SDS011;2665;53.112;7.358;2023-05-10T13:38:42;3.10;;;1.93;;
5285;SDS011;2665;53.112;7.358;2023-05-10T13:41:08;6.37;;;3.10;;
5285;SDS011;2665;53.112;7.358;2023-05-10T13:43:34;2.87;;;1.77;;
5285;SDS011;2665;53.112;7.358;2023-05-10T13:46:01;3.50;;;1.97;;
5285;SDS011;2665;53.112;7.358;2023-05-10T13:48:27;2.40;;;1.50;;
5285;SDS011;2665;53.112;7.358;2023-05-10T13:50:53;2.10;;;1.30;;
5285;SDS011;2665;53.112;7.358;2023-05-10T13:53:20;2.40;;;1.40;;
5285;SDS011;2665;53.112;7.358;2023-05-10T13:55:46;2.73;;;1.70;;
5285;SDS011;2665;53.112;7.358;2023-05-10T13:58:12;2.67;;;1.47;;
5285;SDS011;2665;53.112;7.358;2023-05-10T14:00:38;4.13;;;1.90;;
5285;SDS011;2665;53.112;7.358;2023-05-10T14:03:05;3.83;;;1.83;;
5285;SDS011;2665;53.112;7.358;2023-05-10T14:05:32;4.00;;;2.50;;
5285;SDS011;2665;53.112;7.358;2023-05-10T14:07:58;7.30;;;3.43;;
5285;SDS011;2665;53.112;7.358;2023-05-10T14:10:24;3.27;;;2.40;;
5285;SDS011;2665;53.112;7.358;2023-05-10T14:12:50;4.53;;;2.50;;
5285;SDS011;2665;53.112;7.358;2023-05-10T14:15:16;6.70;;;3.60;;
5285;SDS011;2665;53.112;7.358;2023-05-10T14:17:43;5.50;;;2.83;;
5285;SDS011;2665;53.112;7.358;2023-05-10T14:20:09;3.57;;;2.40;;
5285;SDS011;2665;53.112;7.358;2023-05-10T14:22:35;4.13;;;3.10;;
5285;SDS011;2665;53.112;7.358;2023-05-10T14:25:01;5.83;;;2.33;;
5285;SDS011;2665;53.112;7.358;2023-05-10T14:27:27;5.20;;;2.83;;
5285;SDS011;2665;53.112;7.358;2023-05-10T14:29:53;9.50;;;3.23;;
5285;SDS011;2665;53.112;7.358;2023-05-10T14:32:19;3.03;;;2.20;;
5285;SDS011;2665;53.112;7.358;2023-05-10T14:34:46;3.30;;;2.10;;
5285;SDS011;2665;53.112;7.358;2023-05-10T14:37:13;3.77;;;2.07;;
5285;SDS011;2665;53.112;7.358;2023-05-10T14:39:40;6.73;;;2.30;;
5285;SDS011;2665;53.112;7.358;2023-05-10T14:42:07;4.07;;;2.27;;
5285;SDS011;2665;53.112;7.358;2023-05-10T14:44:33;3.17;;;2.03;;
5285;SDS011;2665;53.112;7.358;2023-05-10T14:46:59;6.10;;;2.80;;
5285;SDS011;2665;53.112;7.358;2023-05-10T14:49:25;4.50;;;2.90;;
5285;SDS011;2665;53.112;7.358;2023-05-10T14:51:52;6.50;;;2.80;;
5285;SDS011;2665;53.112;7.358;2023-05-10T14:54:18;3.73;;;2.30;;
5285;SDS011;2665;53.112;7.358;2023-05-10T14:56:44;4.33;;;2.37;;
5285;SDS011;2665;53.112;7.358;2023-05-10T14:59:10;4.80;;;2.20;;
5285;SDS011;2665;53.112;7.358;2023-05-10T15:01:36;4.50;;;3.33;;
5285;SDS011;2665;53.112;7.358;2023-05-10T15:04:05;5.37;;;2.80;;
5285;SDS011;2665;53.112;7.358;2023-05-10T15:06:32;6.83;;;2.57;;
5285;SDS011;2665;53.112;7.358;2023-05-10T15:08:58;3.20;;;2.50;;
5285;SDS011;2665;53.112;7.358;2023-05-10T15:11:24;5.00;;;2.83;;
5285;SDS011;2665;53.112;7.358;2023-05-10T15:13:50;5.83;;;3.47;;
5285;SDS011;2665;53.112;7.358;2023-05-10T15:16:17;5.43;;;3.03;;
5285;SDS011;2665;53.112;7.358;2023-05-10T15:18:43;5.60;;;3.07;;
5285;SDS011;2665;53.112;7.358;2023-05-10T15:21:09;4.53;;;2.30;;
5285;SDS011;2665;53.112;7.358;2023-05-10T15:23:35;5.73;;;2.90;;
5285;SDS011;2665;53.112;7.358;2023-05-10T15:26:01;4.10;;;3.07;;
5285;SDS011;2665;53.112;7.358;2023-05-10T15:28:27;5.60;;;3.10;;
5285;SDS011;2665;53.112;7.358;2023-05-10T15:30:54;6.33;;;3.00;;
5285;SDS011;2665;53.112;7.358;2023-05-10T15:33:21;6.37;;;3.07;;
5285;SDS011;2665;53.112;7.358;2023-05-10T15:35:47;3.70;;;2.70;;
5285;SDS011;2665;53.112;7.358;2023-05-10T15:38:13;3.93;;;2.60;;
5285;SDS011;2665;53.112;7.358;2023-05-10T15:40:39;3.50;;;2.73;;
5285;SDS011;2665;53.112;7.358;2023-05-10T15:43:06;5.00;;;3.00;;
5285;SDS011;2665;53.112;7.358;2023-05-10T15:45:32;4.33;;;2.70;;
5285;SDS011;2665;53.112;7.358;2023-05-10T15:47:58;5.50;;;2.70;;
5285;SDS011;2665;53.112;7.358;2023-05-10T15:50:24;8.10;;;3.00;;
5285;SDS011;2665;53.112;7.358;2023-05-10T15:52:50;4.40;;;2.90;;
5285;SDS011;2665;53.112;7.358;2023-05-10T15:55:17;5.90;;;3.10;;
5285;SDS011;2665;53.112;7.358;2023-05-10T15:57:43;7.67;;;3.20;;
5285;SDS011;2665;53.112;7.358;2023-05-10T16:00:10;6.40;;;3.27;;
5285;SDS011;2665;53.112;7.358;2023-05-10T16:02:36;4.40;;;3.03;;